Time;durP1;ratioP1;P1;durP2;ratioP2;P2;SDS_P1;SDS_P2;PMS_P1;PMS_P2;Temp;Humidity;BMP_temperature;BMP_pressure;BME280_temperature;BME280_humidity;BME280_pressure;Samples;Min_cycle;Max_cycle;Signal;HPM_P1;HPM_P2
2023/08/22 02:58:16;;;;;;;0.85;0.85;;;;;;;23.40;60.44;99997.12;5304290;26;159029;-93
2023/08/22 03:00:54;;;;;;;0.25;0.25;;;;;;;23.30;60.44;99999.69;5272416;27;20075;-92
2023/08/22 03:03:27;;;;;;;0.32;0.32;;;;;;;23.19;60.43;100002.38;5272202;27;20067;-92
2023/08/22 03:06:34;;;;;;;;;;;;;;;;;;;;;
2023/08/22 04:31:37;;;;;;;;;;;;;;;;;;;;;
2023/08/22 04:41:04;;;;;;;1.35;1.25;;;;;;;23.40;60.44;100008.59;5256944;27;20052;-93
2023/08/22 04:43:29;;;;;;;0.40;0.32;;;;;;;23.47;60.44;100014.25;5236747;27;20050;-91
2023/08/22 04:45:56;;;;;;;0.85;0.52;;;;;;;23.63;60.45;100013.87;5236068;27;20168;-92
2023/08/22 04:48:23;;;;;;;0.57;0.57;;;;;;;23.68;60.45;100014.34;5276277;26;20029;-91
2023/08/22 04:50:49;;;;;;;0.25;0.25;;;;;;;23.74;60.46;100014.69;5288541;26;20078;-91
2023/08/22 04:53:14;;;;;;;0.52;0.52;;;;;;;23.84;60.46;100020.91;5288246;26;20393;-91
2023/08/22 04:55:40;;;;;;;1.75;1.27;;;;;;;23.96;60.46;100019.06;5288085;26;20082;-91
2023/08/22 04:58:05;;;;;;;0.70;0.70;;;;;;;24.23;60.48;100015.06;5288015;26;20122;-91
2023/08/22 05:00:30;;;;;;;0.62;0.62;;;;;;;24.38;60.49;100021.78;5287951;26;20070;-92
2023/08/22 05:02:56;;;;;;;0.30;0.30;;;;;;;24.52;60.49;100025.91;5288004;26;20072;-94
2023/08/22 05:05:21;;;;;;;0.75;0.52;;;;;;;24.58;60.50;100023.56;5287892;26;20349;-91
2023/08/22 05:07:47;;;;;;;1.58;0.82;;;;;;;24.58;60.50;100028.88;5287729;26;20066;-91
2023/08/22 05:10:12;;;;;;;0.45;0.35;;;;;;;24.57;60.49;100027.19;5287140;26;20092;-91
2023/08/22 05:12:38;;;;;;;0.32;0.30;;;;;;;24.79;60.51;100026.19;5287824;26;20088;-91
2023/08/22 05:15:04;;;;;;;2.22;0.80;;;;;;;24.71;60.51;100026.87;5287762;26;20059;-92
2023/08/22 05:17:29;;;;;;;1.27;1.05;;;;;;;24.73;60.50;100027.56;5287636;26;20064;-91
2023/08/22 05:19:55;;;;;;;1.35;0.90;;;;;;;24.67;60.49;100043.25;5287739;26;20061;-91
2023/08/22 05:22:20;;;;;;;0.70;0.60;;;;;;;24.71;60.51;100034.00;5287832;26;20091;-92
2023/08/22 05:24:48;;;;;;;3.20;1.80;;;;;;;24.85;60.51;100041.66;5306067;26;20093;-91
2023/08/22 05:27:17;;;;;;;0.75;0.75;;;;;;;25.05;60.52;100034.59;5287697;26;20132;-92
2023/08/22 05:29:43;;;;;;;2.07;1.17;;;;;;;25.18;60.52;100037.88;5288834;26;20065;-92
2023/08/22 05:32:08;;;;;;;0.98;0.93;;;;;;;25.27;60.53;100037.06;5287608;26;20136;-91
2023/08/22 05:34:33;;;;;;;0.80;0.73;;;;;;;25.26;60.53;100034.53;5287494;26;20301;-91
2023/08/22 05:36:59;;;;;;;0.90;0.90;;;;;;;25.33;60.54;100033.03;5305901;26;20411;-91
2023/08/22 05:39:24;;;;;;;1.25;1.15;;;;;;;25.49;60.55;100027.16;5287578;26;20059;-93
2023/08/22 05:41:50;;;;;;;1.40;1.30;;;;;;;25.65;60.55;100038.97;5305876;26;20393;-92
2023/08/22 05:44:15;;;;;;;0.98;0.88;;;;;;;26.00;60.56;100040.28;5287391;26;20079;-91
2023/08/22 05:46:41;;;;;;;0.25;0.25;;;;;;;26.25;60.58;100038.88;5287451;26;20060;-91
2023/08/22 05:49:06;;;;;;;0.85;0.50;;;;;;;26.42;60.58;100032.00;5287278;26;20060;-92
2023/08/22 05:51:34;;;;;;;1.45;1.00;;;;;;;26.45;60.59;100034.38;5287822;26;20437;-92
2023/08/22 05:53:59;;;;;;;0.35;0.35;;;;;;;26.34;60.59;100032.72;5288224;26;20419;-93
2023/08/22 05:56:24;;;;;;;2.08;1.27;;;;;;;26.33;60.58;100036.34;5287416;26;20081;-93
2023/08/22 05:59:19;;;;;;;0.77;0.77;;;;;;;26.39;60.59;100041.13;5287493;26;20060;-93
2023/08/22 06:01:41;;;;;;;0.13;0.13;;;;;;;26.56;60.59;100042.22;5312819;26;20074;-92
2023/08/22 06:04:07;;;;;;;1.08;1.08;;;;;;;26.77;60.61;100037.53;5287593;26;20052;-92
2023/08/22 06:06:33;;;;;;;1.02;0.98;;;;;;;26.97;60.63;100040.09;5287681;26;20078;-92
2023/08/22 06:08:59;;;;;;;0.40;0.40;;;;;;;27.26;60.63;100040.03;5286844;26;22016;-93
2023/08/22 06:11:24;;;;;;;1.48;1.37;;;;;;;27.30;60.63;100041.41;5287592;26;20131;-92
2023/08/22 06:13:50;;;;;;;0.50;0.50;;;;;;;27.24;60.63;100042.84;5287409;26;20115;-92
2023/08/22 06:16:15;;;;;;;1.35;1.25;;;;;;;27.36;60.63;100043.47;5287595;26;20123;-93
2023/08/22 06:18:41;;;;;;;2.65;1.27;;;;;;;27.46;60.65;100034.44;5287723;26;20060;-94
2023/08/22 06:21:06;;;;;;;0.60;0.60;;;;;;;27.78;60.66;100027.75;5287124;26;20072;-94
2023/08/22 06:23:31;;;;;;;2.92;1.15;;;;;;;27.81;60.66;100030.13;5287107;26;20060;-92
2023/08/22 06:25:59;;;;;;;0.93;0.90;;;;;;;27.91;60.66;100030.03;5287418;26;20056;-92
2023/08/22 06:28:27;;;;;;;1.12;0.68;;;;;;;28.04;60.67;100033.16;5286928;26;20091;-92
2023/08/22 06:30:55;;;;;;;0.52;0.52;;;;;;;28.18;60.68;100029.12;5286924;26;20056;-93
2023/08/22 06:33:20;;;;;;;2.15;0.85;;;;;;;28.25;60.69;100027.53;5288228;26;20074;-93
2023/08/22 06:35:47;;;;;;;0.40;0.40;;;;;;;28.65;60.70;100025.12;5287512;26;20344;-93
2023/08/22 06:38:12;;;;;;;1.02;1.02;;;;;;;28.64;60.70;100027.97;5305799;26;20069;-92
2023/08/22 06:40:38;;;;;;;0.73;0.73;;;;;;;28.81;60.71;100039.59;5287252;26;20100;-92
2023/08/22 06:43:03;;;;;;;1.20;1.10;;;;;;;28.84;60.71;100032.06;5287385;26;20056;-94
2023/08/22 06:45:29;;;;;;;0.77;0.77;;;;;;;29.08;60.72;100035.91;5286759;26;20314;-94
2023/08/22 06:47:55;;;;;;;1.42;0.85;;;;;;;29.25;60.73;100033.13;5287120;26;20065;-92
2023/08/22 06:50:25;;;;;;;0.60;0.60;;;;;;;29.21;60.73;100033.63;5305618;26;20057;-93
2023/08/22 06:52:56;;;;;;;0.30;0.30;;;;;;;29.40;60.74;100029.84;5288341;26;20066;-93
2023/08/22 06:55:22;;;;;;;0.32;0.32;;;;;;;29.45;60.74;100023.00;5288791;26;20075;-92
2023/08/22 06:57:49;;;;;;;1.05;0.77;;;;;;;29.53;60.74;100023.03;5286938;26;20064;-93
2023/08/22 07:00:16;;;;;;;0.60;0.60;;;;;;;29.84;60.76;100025.09;5287679;26;20053;-93
2023/08/22 07:02:47;;;;;;;1.90;1.75;;;;;;;29.84;60.77;100025.09;5288266;26;20052;-94
2023/08/22 07:05:15;;;;;;;0.70;0.70;;;;;;;30.02;60.77;100022.25;5287695;26;20062;-94
2023/08/22 07:07:40;;;;;;;0.57;0.57;;;;;;;30.03;60.78;100027.47;5287449;26;20725;-94
2023/08/22 07:10:12;;;;;;;1.73;0.93;;;;;;;30.18;60.77;100027.66;5287514;26;20065;-94
2023/08/22 07:12:44;;;;;;;0.28;0.28;;;;;;;30.16;60.78;100030.50;5306885;26;20064;-93
2023/08/22 07:15:15;;;;;;;0.70;0.70;;;;;;;30.55;60.80;100019.06;5288295;26;20116;-93
2023/08/22 07:17:43;;;;;;;1.00;0.85;;;;;;;30.43;60.79;100025.78;5288331;26;20036;-93
2023/08/22 07:20:08;;;;;;;1.35;0.60;;;;;;;30.62;60.81;100025.44;5287371;26;20785;-94
2023/08/22 07:22:41;;;;;;;0.95;0.57;;;;;;;30.74;60.81;100026.75;5287555;26;20096;-93
2023/08/22 07:25:07;;;;;;;1.37;1.00;;;;;;;30.62;60.81;100024.59;5287466;26;20692;-93
2023/08/22 07:27:32;;;;;;;1.40;1.30;;;;;;;30.59;60.80;100025.75;5287365;26;20060;-95
2023/08/22 07:29:58;;;;;;;0.70;0.70;;;;;;;30.66;60.81;100032.16;5287176;26;20358;-94
2023/08/22 07:32:23;;;;;;;1.30;0.65;;;;;;;30.94;60.82;100021.81;5287190;26;20328;-93
2023/08/22 07:34:49;;;;;;;1.17;1.10;;;;;;;30.96;60.82;100029.69;5287472;26;20084;-94
2023/08/22 07:37:14;;;;;;;0.80;0.80;;;;;;;31.22;60.84;100026.75;5287494;26;20057;-93
2023/08/22 07:39:41;;;;;;;1.05;0.82;;;;;;;31.32;60.83;100022.88;5287343;26;20064;-94
2023/08/22 07:42:06;;;;;;;0.98;0.98;;;;;;;31.29;60.84;100025.91;5287554;26;20059;-93
2023/08/22 07:44:32;;;;;;;3.33;2.17;;;;;;;31.25;60.84;100019.22;5287401;26;20068;-94
2023/08/22 07:46:57;;;;;;;2.17;1.58;;;;;;;31.32;60.84;100022.03;5287333;26;20157;-92
2023/08/22 07:49:26;;;;;;;1.33;0.82;;;;;;;31.23;60.83;100020.37;5287420;26;20120;-94
2023/08/22 07:51:51;;;;;;;1.25;0.77;;;;;;;31.48;60.86;100013.87;5287883;26;20096;-94
2023/08/22 07:54:17;;;;;;;1.17;0.88;;;;;;;31.50;60.85;100013.69;5287270;26;20068;-94
2023/08/22 07:56:43;;;;;;;1.25;0.95;;;;;;;31.66;60.86;100009.03;5287610;26;20115;-93
2023/08/22 07:59:09;;;;;;;0.32;0.32;;;;;;;31.79;60.86;100005.78;5287790;26;20059;-93
2023/08/22 08:01:35;;;;;;;0.60;0.50;;;;;;;31.73;60.86;100017.28;5287689;26;20062;-92
2023/08/22 08:04:00;;;;;;;0.52;0.47;;;;;;;31.74;60.87;100013.56;5287716;26;20123;-92
2023/08/22 08:06:26;;;;;;;1.35;1.27;;;;;;;31.73;60.86;100011.88;5304952;26;20111;-92
2023/08/22 08:08:51;;;;;;;2.05;0.45;;;;;;;31.77;60.87;100012.38;5287598;26;20056;-92
2023/08/22 08:11:17;;;;;;;1.65;0.57;;;;;;;32.08;60.88;100018.50;5287496;26;20056;-93
2023/08/22 08:13:42;;;;;;;0.32;0.32;;;;;;;32.17;60.88;100019.25;5286677;26;28594;-92
2023/08/22 08:16:08;;;;;;;0.77;0.77;;;;;;;32.09;60.88;100016.63;5287230;26;20116;-92
2023/08/22 08:18:33;;;;;;;3.30;1.23;;;;;;;32.33;60.89;100016.44;5287110;26;20113;-93
2023/08/22 08:20:59;;;;;;;1.87;1.75;;;;;;;32.41;60.90;100015.53;5287519;26;20070;-92
2023/08/22 08:23:25;;;;;;;1.00;0.85;;;;;;;32.66;60.90;100020.50;5287489;26;20064;-92
2023/08/22 08:25:51;;;;;;;2.83;1.10;;;;;;;32.61;60.91;100022.91;5287699;26;20094;-92
2023/08/22 08:28:16;;;;;;;2.87;1.40;;;;;;;32.70;60.92;100020.97;5287231;26;20101;-92
2023/08/22 08:30:42;;;;;;;1.75;0.88;;;;;;;32.84;60.91;100020.16;5287156;26;20063;-91
2023/08/22 08:33:07;;;;;;;1.45;0.90;;;;;;;33.12;60.93;100009.50;5287301;26;20407;-91
2023/08/22 08:35:33;;;;;;;0.98;0.98;;;;;;;33.33;60.95;100016.84;5287452;26;20126;-91
2023/08/22 08:37:59;;;;;;;1.25;1.15;;;;;;;33.51;60.95;100009.19;5287400;26;20061;-92
2023/08/22 08:40:25;;;;;;;0.50;0.50;;;;;;;33.69;60.96;100011.44;5287528;26;20060;-92
2023/08/22 08:42:50;;;;;;;0.55;0.55;;;;;;;33.70;60.95;100009.59;5287445;26;20061;-91
2023/08/22 08:45:16;;;;;;;4.40;1.15;;;;;;;33.82;60.97;100005.31;5287189;26;20086;-92
2023/08/22 08:47:41;;;;;;;2.15;0.45;;;;;;;34.00;60.98;100005.75;5287376;26;20080;-91
2023/08/22 08:50:08;;;;;;;1.12;0.80;;;;;;;33.99;60.97;100008.62;5287339;26;20068;-91
2023/08/22 08:52:34;;;;;;;1.35;0.98;;;;;;;34.08;60.98;100012.91;5306022;26;20116;-92
2023/08/22 08:54:59;;;;;;;7.72;0.73;;;;;;;34.31;60.99;100002.69;5287240;26;20124;-92
2023/08/22 08:57:26;;;;;;;0.40;0.40;;;;;;;34.52;61.00;99998.25;5287149;26;20104;-92
2023/08/22 08:59:52;;;;;;;0.50;0.50;;;;;;;34.58;61.00;99995.63;5287821;26;20051;-92
2023/08/22 09:02:18;;;;;;;1.95;0.82;;;;;;;34.78;61.02;99998.41;5287238;26;20064;-92
2023/08/22 09:04:44;;;;;;;2.62;1.52;;;;;;;34.87;61.02;99999.13;5287329;26;20521;-92
2023/08/22 09:07:09;;;;;;;0.98;0.57;;;;;;;35.20;61.04;99993.84;5287180;26;20065;-92
2023/08/22 09:09:35;;;;;;;0.98;0.95;;;;;;;35.16;61.03;99988.03;5304740;26;28281;-93
2023/08/22 09:12:04;;;;;;;1.17;1.02;;;;;;;35.23;61.03;99990.75;5287272;26;20065;-92
2023/08/22 09:14:29;;;;;;;1.98;1.48;;;;;;;35.37;61.04;99985.22;5305245;26;20073;-92
2023/08/22 09:16:57;;;;;;;0.82;0.82;;;;;;;35.37;61.04;99981.66;5305168;26;20076;-92
2023/08/22 09:19:23;;;;;;;0.85;0.85;;;;;;;35.56;61.05;99978.16;5287482;26;20059;-92
2023/08/22 09:21:59;;;;;;;1.37;0.88;;;;;;;35.78;61.06;99975.28;5287532;26;20059;-93
2023/08/22 09:24:24;;;;;;;1.25;1.15;;;;;;;35.90;61.07;99973.66;5286845;26;20130;-93
2023/08/22 09:26:50;;;;;;;0.77;0.70;;;;;;;35.90;61.08;99971.75;5305169;26;20066;-93
2023/08/22 09:29:30;;;;;;;1.10;1.00;;;;;;;35.96;61.07;99970.97;5287354;26;20127;-92
2023/08/22 09:31:57;;;;;;;;;;;;;;;36.24;61.09;99965.31;5305759;26;20132;-93
2023/08/22 09:34:22;;;;;;;0.70;0.70;;;;;;;36.19;61.08;99970.50;5305528;26;19972;-94
2023/08/22 09:36:48;;;;;;;1.85;0.60;;;;;;;36.14;61.08;99966.75;5286913;26;20072;-93
2023/08/22 09:39:16;;;;;;;0.88;0.88;;;;;;;36.14;61.08;99970.31;5287053;26;20040;-92
2023/08/22 09:41:42;;;;;;;0.40;0.40;;;;;;;36.36;61.09;99961.97;5287819;26;20075;-93
2023/08/22 09:44:10;;;;;;;0.50;0.43;;;;;;;36.45;61.09;99960.72;5286944;26;20065;-94
2023/08/22 09:46:35;;;;;;;0.62;0.62;;;;;;;36.45;61.09;99949.88;5286940;26;20045;-93
2023/08/22 09:49:01;;;;;;;0.68;0.68;;;;;;;36.49;61.11;99961.97;5286555;26;20044;-93
2023/08/22 09:51:27;;;;;;;1.58;1.10;;;;;;;36.62;61.12;99956.47;5287069;26;20071;-93
2023/08/22 09:53:55;;;;;;;7.85;2.75;;;;;;;36.67;61.11;99947.69;5286988;26;20105;-93
2023/08/22 09:56:21;;;;;;;1.10;1.00;;;;;;;36.79;61.12;99952.28;5305413;26;20052;-93
2023/08/22 09:58:46;;;;;;;0.75;0.70;;;;;;;36.95;61.12;99950.16;5287011;26;20067;-93
2023/08/22 10:01:16;;;;;;;1.83;1.00;;;;;;;37.15;61.13;99940.84;5286933;26;20083;-93
2023/08/22 10:03:43;;;;;;;0.32;0.32;;;;;;;37.23;61.14;99939.75;5305281;26;20443;-93
2023/08/22 10:06:10;;;;;;;0.80;0.80;;;;;;;37.28;61.13;99948.13;5304794;26;20052;-93
2023/08/22 10:08:36;;;;;;;0.52;0.52;;;;;;;37.60;61.15;99937.22;5305195;26;20653;-93
2023/08/22 10:11:02;;;;;;;0.37;0.37;;;;;;;37.31;61.15;99936.81;5287216;26;20468;-94
2023/08/22 10:13:27;;;;;;;1.40;1.30;;;;;;;37.47;61.15;99939.00;5304866;26;20072;-94
2023/08/22 10:15:53;;;;;;;0.35;0.35;;;;;;;37.65;61.16;99934.72;5286705;26;20096;-94
2023/08/22 10:18:23;;;;;;;0.88;0.75;;;;;;;37.78;61.17;99937.34;5286829;26;20048;-94
2023/08/22 10:20:48;;;;;;;2.03;1.55;;;;;;;37.89;61.17;99933.09;5304882;26;20079;-93
2023/08/22 10:23:15;;;;;;;1.05;0.90;;;;;;;37.93;61.16;99926.97;5286595;26;20060;-93
2023/08/22 10:25:50;;;;;;;0.80;0.70;;;;;;;37.98;61.17;99929.03;5304884;26;20068;-92
2023/08/22 10:28:16;;;;;;;0.98;0.93;;;;;;;38.10;61.19;99929.97;5286890;26;20051;-93
2023/08/22 10:31:03;;;;;;;0.57;0.57;;;;;;;38.21;61.19;99925.69;5304583;26;20657;-93
2023/08/22 10:33:29;;;;;;;1.00;0.93;;;;;;;38.11;61.19;99922.66;5304952;26;20068;-93
2023/08/22 10:36:08;;;;;;;0.80;0.80;;;;;;;38.23;61.19;99918.16;5286452;26;20318;-92
2023/08/22 10:38:52;;;;;;;0.93;0.73;;;;;;;38.28;61.19;99923.72;5288032;26;20591;-93
2023/08/22 10:41:23;;;;;;;0.93;0.93;;;;;;;38.30;61.19;99917.00;5324267;26;20056;-94
2023/08/22 10:43:48;;;;;;;0.95;0.95;;;;;;;38.45;61.20;99916.66;5306080;26;20064;-93
2023/08/22 10:46:14;;;;;;;1.35;1.25;;;;;;;38.49;61.20;99914.31;5287561;26;20144;-93
2023/08/22 10:48:39;;;;;;;4.03;1.35;;;;;;;38.58;61.20;99915.69;5287781;26;20522;-93
2023/08/22 10:51:06;;;;;;;0.40;0.40;;;;;;;38.76;61.21;99918.38;5287664;26;20060;-93
2023/08/22 10:53:41;;;;;;;1.27;0.95;;;;;;;38.86;61.22;99904.25;5305798;26;20029;-93
2023/08/22 10:56:36;;;;;;;1.20;0.93;;;;;;;38.80;61.21;99905.97;5306013;26;20056;-93
2023/08/22 10:59:02;;;;;;;1.60;0.98;;;;;;;38.71;61.21;99901.94;5276700;26;20043;-93
2023/08/22 11:01:28;;;;;;;0.50;0.50;;;;;;;38.79;61.22;99903.50;5287772;26;20105;-93
2023/08/22 11:03:55;;;;;;;0.47;0.47;;;;;;;38.87;61.22;99898.59;5287621;26;20736;-93
2023/08/22 11:06:21;;;;;;;2.55;1.67;;;;;;;38.92;61.23;99898.72;5288183;26;20048;-93
2023/08/22 11:08:47;;;;;;;6.90;1.85;;;;;;;39.10;61.23;99894.31;5305818;26;20048;-93
2023/08/22 11:11:16;;;;;;;0.98;0.98;;;;;;;39.28;61.24;99897.00;5305839;26;20060;-93
2023/08/22 11:13:42;;;;;;;2.00;1.17;;;;;;;39.35;61.24;99895.00;5305693;26;20068;-93
2023/08/22 11:16:12;;;;;;;0.62;0.62;;;;;;;39.24;61.23;99893.03;5305578;26;20048;-93
2023/08/22 11:18:39;;;;;;;1.25;1.00;;;;;;;39.18;61.24;99902.16;5287754;26;20773;-92
2023/08/22 11:21:05;;;;;;;3.17;1.62;;;;;;;39.27;61.24;99890.69;5305607;26;20084;-93
2023/08/22 11:23:31;;;;;;;2.92;2.15;;;;;;;39.48;61.24;99896.66;5287515;26;20060;-93
2023/08/22 11:25:57;;;;;;;2.15;1.80;;;;;;;39.43;61.25;99896.53;5305721;26;20070;-92
2023/08/22 11:28:30;;;;;;;2.15;1.90;;;;;;;39.38;61.24;99883.62;5287363;26;20048;-93
2023/08/22 11:30:56;;;;;;;0.73;0.57;;;;;;;39.24;61.24;99888.44;5287453;26;20480;-94
2023/08/22 11:33:23;;;;;;;4.37;1.23;;;;;;;39.36;61.25;99883.03;5287379;26;20061;-93
2023/08/22 11:35:49;;;;;;;1.17;1.10;;;;;;;39.29;61.24;99885.88;5288283;26;20149;-94
2023/08/22 11:38:15;;;;;;;1.10;0.70;;;;;;;39.33;61.23;99879.94;5287326;26;20048;-93
2023/08/22 11:40:43;;;;;;;0.65;0.65;;;;;;;39.21;61.24;99877.19;5287293;26;20313;-93
2023/08/22 11:43:13;;;;;;;2.57;2.37;;;;;;;39.28;61.24;99886.09;5287269;26;20154;-91
2023/08/22 11:45:46;;;;;;;1.17;1.08;;;;;;;39.32;61.25;99875.56;5288815;26;20051;-92
2023/08/22 11:48:13;;;;;;;3.28;1.48;;;;;;;39.46;61.25;99871.53;5287886;26;20059;-92
2023/08/22 11:50:38;;;;;;;0.82;0.82;;;;;;;39.37;61.24;99870.25;5287745;26;20029;-91
2023/08/22 11:53:13;;;;;;;0.65;0.65;;;;;;;39.46;61.24;99874.28;5288141;26;20056;-93
2023/08/22 11:55:48;;;;;;;0.93;0.70;;;;;;;39.44;61.25;99871.78;5306065;26;20032;-93
2023/08/22 11:58:17;;;;;;;1.25;1.05;;;;;;;39.46;61.24;99871.53;5306817;26;20064;-92
2023/08/22 12:00:42;;;;;;;1.17;1.08;;;;;;;39.41;61.25;99868.69;5288278;26;20025;-93
2023/08/22 12:03:09;;;;;;;1.05;1.02;;;;;;;39.35;61.25;99866.91;5287725;26;20101;-92
2023/08/22 12:05:41;;;;;;;1.12;1.02;;;;;;;39.31;61.24;99866.56;5288068;26;20048;-92
2023/08/22 12:08:06;;;;;;;0.37;0.37;;;;;;;39.38;61.25;99858.28;5305558;26;20017;-91
2023/08/22 12:10:42;;;;;;;2.58;1.85;;;;;;;39.38;61.25;99856.37;5324502;26;20142;-93
2023/08/22 12:13:08;;;;;;;0.52;0.52;;;;;;;39.60;61.25;99851.22;5305473;26;20071;-92
2023/08/22 12:15:33;;;;;;;0.77;0.77;;;;;;;39.52;61.25;99855.16;5305398;26;20056;-93
2023/08/22 12:17:59;;;;;;;0.50;0.50;;;;;;;39.54;61.25;99850.28;5287681;26;20049;-92
2023/08/22 12:20:24;;;;;;;3.15;1.00;;;;;;;39.62;61.25;99851.00;5287619;26;20122;-93
2023/08/22 12:22:50;;;;;;;1.42;1.33;;;;;;;39.77;61.26;99844.03;5287731;26;20391;-92
2023/08/22 12:25:15;;;;;;;1.12;0.77;;;;;;;39.59;61.25;99846.84;5287496;26;20095;-91
2023/08/22 12:27:41;;;;;;;1.23;1.10;;;;;;;39.62;61.26;99843.66;5287701;26;20044;-93
2023/08/22 12:30:07;;;;;;;1.20;1.10;;;;;;;39.63;61.26;99834.41;5287264;26;20099;-91
2023/08/22 12:32:33;;;;;;;0.70;0.68;;;;;;;39.53;61.26;99837.72;5287600;26;20064;-92
2023/08/22 12:34:59;;;;;;;2.95;1.35;;;;;;;39.52;61.25;99837.97;5306190;26;20099;-93
2023/08/22 12:37:24;;;;;;;0.43;0.43;;;;;;;39.51;61.25;99826.22;5287595;26;20052;-92
2023/08/22 12:39:50;;;;;;;0.75;0.75;;;;;;;39.66;61.27;99827.66;5287294;26;20074;-91
2023/08/22 12:42:15;;;;;;;0.62;0.62;;;;;;;39.55;61.25;99819.25;5288146;26;20074;-92
2023/08/22 12:44:41;;;;;;;0.55;0.52;;;;;;;39.45;61.25;99820.84;5287436;26;20100;-91
2023/08/22 12:47:06;;;;;;;0.65;0.43;;;;;;;39.47;61.25;99825.00;5287282;26;20110;-93
2023/08/22 12:49:32;;;;;;;1.02;1.00;;;;;;;39.54;61.25;99819.50;5287850;26;20060;-91
2023/08/22 12:51:57;;;;;;;0.32;0.32;;;;;;;39.64;61.25;99822.44;5287503;26;20057;-90
2023/08/22 12:54:22;;;;;;;0.90;0.90;;;;;;;39.57;61.26;99819.84;5287256;26;20091;-92
2023/08/22 12:56:48;;;;;;;0.57;0.40;;;;;;;39.65;61.27;99815.09;5287916;26;20041;-93
2023/08/22 12:59:13;;;;;;;1.23;1.12;;;;;;;39.66;61.26;99809.41;5287004;26;20773;-92
2023/08/22 13:01:39;;;;;;;0.60;0.60;;;;;;;39.72;61.27;99808.44;5287705;26;20083;-92
2023/08/22 13:04:12;;;;;;;1.12;0.52;;;;;;;39.61;61.26;99812.03;5287593;26;20067;-92
2023/08/22 13:06:38;;;;;;;2.17;1.33;;;;;;;39.53;61.25;99807.75;5324143;26;20052;-93
2023/08/22 13:09:03;;;;;;;1.92;1.10;;;;;;;39.63;61.26;99803.59;5287448;26;20094;-92
2023/08/22 13:11:28;;;;;;;2.05;1.87;;;;;;;39.77;61.27;99802.31;5287306;26;20100;-92
2023/08/22 13:13:54;;;;;;;0.43;0.43;;;;;;;39.82;61.28;99800.53;5287585;26;20343;-92
2023/08/22 13:16:19;;;;;;;0.77;0.55;;;;;;;39.78;61.26;99802.06;5286368;26;20108;-91
2023/08/22 13:18:45;;;;;;;0.75;0.75;;;;;;;39.74;61.27;99803.59;5287162;26;20095;-93
2023/08/22 13:21:10;;;;;;;0.65;0.65;;;;;;;39.62;61.26;99786.44;5286428;26;20111;-92
2023/08/22 13:23:35;;;;;;;0.60;0.60;;;;;;;39.59;61.26;99786.91;5286352;26;20122;-91
2023/08/22 13:26:01;;;;;;;1.17;0.68;;;;;;;39.61;61.26;99786.66;5287048;26;20096;-90
2023/08/22 13:28:26;;;;;;;0.80;0.80;;;;;;;39.40;61.25;99794.34;5287096;26;20118;-92
2023/08/22 13:30:52;;;;;;;1.40;1.25;;;;;;;39.39;61.24;99795.41;5286258;26;20056;-91
2023/08/22 13:33:17;;;;;;;0.55;0.55;;;;;;;39.47;61.25;99788.75;5285960;26;20047;-91
2023/08/22 13:35:43;;;;;;;1.23;0.82;;;;;;;39.12;61.24;99788.75;5285798;26;22417;-92
2023/08/22 13:38:08;;;;;;;0.40;0.40;;;;;;;39.17;61.24;99789.69;5286210;26;20115;-91
2023/08/22 13:40:34;;;;;;;1.50;1.12;;;;;;;39.25;61.25;99788.50;5285172;26;20103;-91
2023/08/22 13:42:59;;;;;;;1.65;0.55;;;;;;;39.23;61.25;99790.63;5287128;26;20104;-92
2023/08/22 13:45:25;;;;;;;0.73;0.60;;;;;;;39.31;61.24;99778.59;5287116;26;20068;-91
2023/08/22 13:47:54;;;;;;;2.62;1.50;;;;;;;39.24;61.25;99771.34;5286855;26;20115;-91
2023/08/22 13:50:20;;;;;;;0.30;0.30;;;;;;;39.23;61.25;99769.69;5288344;26;20076;-91
2023/08/22 13:52:45;;;;;;;1.00;0.80;;;;;;;39.16;61.25;99773.59;5305323;26;20095;-91
2023/08/22 13:55:11;;;;;;;0.95;0.93;;;;;;;39.15;61.25;99777.38;5286703;26;20071;-93
2023/08/22 13:57:36;;;;;;;0.65;0.57;;;;;;;39.23;61.25;99771.56;5305579;26;20142;-92
2023/08/22 14:00:03;;;;;;;1.00;0.93;;;;;;;39.27;61.24;99770.88;5287341;26;20103;-90
2023/08/22 14:02:28;;;;;;;1.08;0.55;;;;;;;38.98;61.24;99769.84;5305611;26;20071;-91
2023/08/22 14:04:54;;;;;;;2.55;0.98;;;;;;;39.06;61.23;99765.97;5287371;26;20049;-92
2023/08/22 14:07:20;;;;;;;0.90;0.90;;;;;;;39.13;61.24;99769.44;5287498;26;20124;-93
2023/08/22 14:09:45;;;;;;;0.20;0.20;;;;;;;39.24;61.25;99765.88;5287295;26;20074;-92
2023/08/22 14:12:10;;;;;;;1.35;1.02;;;;;;;39.21;61.24;99754.66;5287081;26;20055;-92
2023/08/22 14:14:36;;;;;;;0.90;0.90;;;;;;;39.10;61.24;99763.66;5287126;26;20061;-93
2023/08/22 14:17:02;;;;;;;0.47;0.47;;;;;;;39.26;61.24;99752.03;5287193;26;20868;-92
2023/08/22 14:19:27;;;;;;;0.50;0.50;;;;;;;39.17;61.24;99754.28;5287763;26;20108;-93
2023/08/22 14:21:53;;;;;;;2.33;1.42;;;;;;;39.07;61.24;99754.06;5305103;26;20063;-92
2023/08/22 14:24:18;;;;;;;2.25;0.70;;;;;;;39.12;61.24;99754.19;5286916;26;20120;-92
2023/08/22 14:26:44;;;;;;;0.55;0.55;;;;;;;39.28;61.25;99753.50;5287262;26;20136;-93
2023/08/22 14:29:09;;;;;;;0.70;0.70;;;;;;;39.01;61.24;99754.94;5287342;26;20078;-93
2023/08/22 14:31:35;;;;;;;1.33;1.23;;;;;;;38.83;61.23;99749.59;5287106;26;20064;-93
2023/08/22 14:34:00;;;;;;;0.28;0.28;;;;;;;38.89;61.23;99748.66;5286846;26;20049;-92
2023/08/22 14:36:25;;;;;;;0.60;0.60;;;;;;;38.88;61.22;99752.44;5286490;26;20176;-90
2023/08/22 14:38:51;;;;;;;0.50;0.50;;;;;;;38.76;61.22;99746.12;5304675;26;20099;-93
2023/08/22 14:41:16;;;;;;;2.22;0.62;;;;;;;38.68;61.22;99739.97;5286603;26;20494;-93
2023/08/22 14:43:42;;;;;;;0.40;0.40;;;;;;;38.79;61.22;99743.78;5286394;26;20302;-93
2023/08/22 14:46:08;;;;;;;1.33;0.70;;;;;;;38.70;61.22;99739.75;5286699;26;20072;-91
2023/08/22 14:48:33;;;;;;;1.77;1.15;;;;;;;38.77;61.23;99739.63;5286130;26;20059;-93
2023/08/22 14:50:59;;;;;;;1.98;1.02;;;;;;;38.67;61.22;99735.59;5287206;26;20096;-92
2023/08/22 14:53:24;;;;;;;0.45;0.45;;;;;;;38.60;61.22;99737.56;5287036;26;20048;-91
2023/08/22 14:56:03;;;;;;;1.35;0.90;;;;;;;38.55;61.22;99739.28;5305462;26;20060;-92
2023/08/22 14:58:41;;;;;;;0.75;0.75;;;;;;;38.53;61.22;99744.13;5305468;26;20060;-91
2023/08/22 15:01:08;;;;;;;0.60;0.55;;;;;;;38.56;61.21;99730.91;5305543;26;20052;-92
2023/08/22 15:03:34;;;;;;;0.50;0.50;;;;;;;38.42;61.21;99734.06;5305075;26;20060;-90
2023/08/22 15:05:59;;;;;;;0.60;0.60;;;;;;;38.33;61.21;99738.97;5287177;26;20117;-89
2023/08/22 15:08:25;;;;;;;0.45;0.45;;;;;;;38.35;61.21;99739.59;5287507;26;20115;-92
2023/08/22 15:10:51;;;;;;;0.10;0.10;;;;;;;38.28;61.20;99733.41;5286995;26;20049;-91
2023/08/22 15:13:17;;;;;;;2.10;1.55;;;;;;;38.31;61.20;99733.75;5305340;26;20067;-91
2023/08/22 15:15:43;;;;;;;0.60;0.60;;;;;;;38.15;61.20;99739.00;5304940;26;20060;-90
2023/08/22 15:18:09;;;;;;;0.43;0.43;;;;;;;38.11;61.19;99743.25;5286401;26;20415;-94
2023/08/22 15:20:34;;;;;;;0.22;0.22;;;;;;;38.05;61.19;99731.38;5286744;26;20056;-93
2023/08/22 15:23:00;;;;;;;1.15;0.62;;;;;;;37.96;61.19;99736.28;5286721;26;20342;-93
2023/08/22 15:25:25;;;;;;;2.90;0.45;;;;;;;37.91;61.19;99743.47;5306087;26;20048;-94
2023/08/22 15:27:51;;;;;;;0.35;0.35;;;;;;;37.88;61.18;99735.78;5287547;26;20076;-90
2023/08/22 15:30:16;;;;;;;0.90;0.68;;;;;;;37.80;61.18;99734.19;5287482;26;20136;-91
2023/08/22 15:32:41;;;;;;;5.28;0.57;;;;;;;37.80;61.18;99742.31;5287870;26;20066;-93
2023/08/22 15:35:07;;;;;;;1.12;0.62;;;;;;;37.67;61.17;99729.69;5288212;26;20064;-94
2023/08/22 15:37:33;;;;;;;0.37;0.22;;;;;;;37.69;61.18;99726.75;5288197;26;20060;-93
2023/08/22 15:40:01;;;;;;;0.20;0.20;;;;;;;37.58;61.17;99731.03;5288029;26;20112;-93
2023/08/22 15:42:26;;;;;;;2.72;0.43;;;;;;;37.62;61.17;99732.28;5288289;26;20041;-93
2023/08/22 15:44:52;;;;;;;0.73;0.55;;;;;;;37.38;61.16;99735.84;5287856;26;20107;-92
2023/08/22 15:47:17;;;;;;;0.20;0.20;;;;;;;37.37;61.17;99729.56;5288235;26;20078;-92
2023/08/22 15:49:42;;;;;;;0.52;0.52;;;;;;;37.30;61.16;99730.69;5287939;26;20057;-93
2023/08/22 15:52:08;;;;;;;0.25;0.25;;;;;;;37.31;61.16;99726.94;5288183;26;20056;-92
2023/08/22 15:54:34;;;;;;;0.45;0.43;;;;;;;37.43;61.16;99719.72;5306604;26;20075;-93
2023/08/22 15:56:59;;;;;;;0.60;0.60;;;;;;;37.21;61.15;99727.41;5288079;26;20072;-93
2023/08/22 15:59:25;;;;;;;0.10;0.10;;;;;;;37.18;61.16;99728.69;5288090;26;20082;-94